Time;durP1;ratioP1;P1;durP2;ratioP2;P2;SDS_P1;SDS_P2;PMS_P1;PMS_P2;Temp;Humidity;BMP_temperature;BMP_pressure;BME280_temperature;BME280_humidity;BME280_pressure;Samples;Min_cycle;Max_cycle;Signal;HPM_P1;HPM_P2
2023/09/07 00:01:57;;;;;;;;;;;18.30;99.90;;;;;;4991570;28;19905;-70
2023/09/07 00:04:23;;;;;;;;;;;18.30;99.90;;;;;;5014202;28;19909;-70
2023/09/07 00:06:49;;;;;;;;;;;18.30;99.90;;;;;;5009755;28;20052;-69
2023/09/07 00:09:18;;;;;;;;;;;18.30;99.90;;;;;;5003750;28;20593;-70
2023/09/07 00:11:45;;;;;;;;;;;18.20;99.90;;;;;;5004815;28;20360;-70
2023/09/07 00:14:11;;;;;;;;;;;18.20;99.90;;;;;;5004188;28;19913;-70
2023/09/07 00:16:38;;;;;;;;;;;18.20;99.90;;;;;;4989864;28;20271;-70
2023/09/07 00:19:06;;;;;;;;;;;18.10;99.90;;;;;;4986969;28;19909;-70
2023/09/07 00:21:32;;;;;;;;;;;18.20;99.90;;;;;;5008583;28;19967;-70
2023/09/07 00:23:58;;;;;;;;;;;18.20;99.90;;;;;;5010435;28;20291;-71
2023/09/07 00:26:23;;;;;;;;;;;18.20;99.90;;;;;;5008643;28;19912;-70
2023/09/07 00:28:49;;;;;;;;;;;18.10;99.90;;;;;;5004528;28;19979;-70
2023/09/07 00:31:15;;;;;;;;;;;18.00;99.90;;;;;;5006935;28;20035;-70
2023/09/07 00:33:40;;;;;;;;;;;18.00;99.90;;;;;;4992075;28;20241;-70
2023/09/07 00:36:06;;;;;;;;;;;17.90;99.90;;;;;;4989448;28;20007;-70
2023/09/07 00:38:32;;;;;;;;;;;17.90;99.90;;;;;;5006238;28;20445;-70
2023/09/07 00:40:57;;;;;;;;;;;17.80;99.90;;;;;;4987996;28;19920;-70
2023/09/07 00:43:23;;;;;;;;;;;17.80;99.90;;;;;;4988580;28;19909;-70
2023/09/07 00:45:49;;;;;;;;;;;17.80;99.90;;;;;;5001014;28;19914;-70
2023/09/07 00:48:15;;;;;;;;;;;17.70;99.90;;;;;;5003576;28;19914;-70
2023/09/07 00:50:41;;;;;;;;;;;17.70;99.90;;;;;;5003079;28;19927;-70
2023/09/07 00:53:07;;;;;;;;;;;17.60;99.90;;;;;;5006705;28;20427;-70
2023/09/07 00:55:34;;;;;;;;;;;17.60;99.90;;;;;;4993769;28;19963;-70
2023/09/07 00:58:04;;;;;;;;;;;17.60;99.90;;;;;;5002745;28;20693;-70
2023/09/07 01:00:30;;;;;;;;;;;17.50;99.90;;;;;;5004314;28;20307;-71
2023/09/07 01:02:55;;;;;;;;;;;17.50;99.90;;;;;;4989975;28;19909;-70
2023/09/07 01:05:34;;;;;;;;;;;17.50;99.90;;;;;;5007511;28;20020;-70
2023/09/07 01:08:06;;;;;;;;;;;17.50;99.90;;;;;;5001965;28;20059;-70
2023/09/07 01:10:32;;;;;;;;;;;17.50;99.90;;;;;;4994369;28;19999;-70
2023/09/07 01:12:57;;;;;;;;;;;17.40;99.90;;;;;;4991452;28;19909;-70
2023/09/07 01:15:23;;;;;;;;;;;17.40;99.90;;;;;;5004824;28;19909;-70
2023/09/07 01:17:49;;;;;;;;;;;17.30;99.90;;;;;;5009396;28;19999;-70
2023/09/07 01:20:16;;;;;;;;;;;17.30;99.90;;;;;;5008815;28;19914;-70
2023/09/07 01:22:42;;;;;;;;;;;17.30;99.90;;;;;;5008317;28;19912;-70
2023/09/07 01:25:08;;;;;;;;;;;17.30;99.90;;;;;;5014135;28;19996;-70
2023/09/07 01:27:34;;;;;;;;;;;17.20;99.90;;;;;;5005902;28;19905;-70
2023/09/07 01:30:00;;;;;;;;;;;17.20;99.90;;;;;;5009860;28;19905;-70
2023/09/07 01:32:26;;;;;;;;;;;17.20;99.90;;;;;;4947263;28;1292530;-71
2023/09/07 01:34:56;;;;;;;;;;;17.20;99.90;;;;;;5016831;28;19905;-70
2023/09/07 01:37:21;;;;;;;;;;;17.20;99.90;;;;;;5014536;28;20367;-70
2023/09/07 01:39:48;;;;;;;;;;;17.20;99.90;;;;;;4990899;28;19913;-70
2023/09/07 01:42:14;;;;;;;;;;;17.20;99.90;;;;;;5007373;28;19921;-70
2023/09/07 01:44:39;;;;;;;;;;;17.20;99.90;;;;;;4992652;28;19913;-70
2023/09/07 01:47:05;;;;;;;;;;;17.20;99.90;;;;;;5009353;28;19909;-70
2023/09/07 01:49:30;;;;;;;;;;;17.20;99.90;;;;;;5007561;28;20344;-71
2023/09/07 01:51:56;;;;;;;;;;;17.20;99.90;;;;;;5007614;28;19955;-70
2023/09/07 01:54:22;;;;;;;;;;;17.20;99.90;;;;;;5012623;28;19909;-70
2023/09/07 01:56:47;;;;;;;;;;;17.20;99.90;;;;;;5007527;28;19910;-70
2023/09/07 01:59:13;;;;;;;;;;;17.20;99.90;;;;;;5008120;28;19964;-70
2023/09/07 02:01:38;;;;;;;;;;;17.10;99.90;;;;;;5010804;28;20431;-70
2023/09/07 02:04:04;;;;;;;;;;;17.10;99.90;;;;;;5011585;28;20233;-70
2023/09/07 02:06:30;;;;;;;;;;;17.10;99.90;;;;;;5007070;28;20016;-70
2023/09/07 02:08:55;;;;;;;;;;;17.00;99.90;;;;;;4999259;28;19923;-70
2023/09/07 02:11:21;;;;;;;;;;;16.90;99.90;;;;;;4991536;28;19920;-70
2023/09/07 02:13:47;;;;;;;;;;;16.90;99.90;;;;;;5009516;28;20011;-70
2023/09/07 02:16:13;;;;;;;;;;;16.80;99.90;;;;;;5003954;28;19920;-70
2023/09/07 02:18:43;;;;;;;;;;;16.80;99.90;;;;;;4993345;28;19909;-70
2023/09/07 02:21:09;;;;;;;;;;;16.90;99.90;;;;;;5011233;28;19996;-70
2023/09/07 02:23:36;;;;;;;;;;;16.90;99.90;;;;;;5002302;28;20046;-70
2023/09/07 02:26:02;;;;;;;;;;;16.90;99.90;;;;;;5012915;28;19999;-70
2023/09/07 02:28:27;;;;;;;;;;;16.90;99.90;;;;;;5002830;28;19965;-70
2023/09/07 02:30:53;;;;;;;;;;;16.90;99.90;;;;;;5011973;28;19905;-70
2023/09/07 02:33:19;;;;;;;;;;;16.90;99.90;;;;;;5007977;28;19932;-70
2023/09/07 02:35:44;;;;;;;;;;;16.90;99.90;;;;;;5010168;28;19913;-70
2023/09/07 02:38:10;;;;;;;;;;;16.90;99.90;;;;;;5008687;28;20056;-70
2023/09/07 02:40:42;;;;;;;;;;;16.90;99.90;;;;;;4989550;28;20315;-70
2023/09/07 02:43:08;;;;;;;;;;;16.90;99.90;;;;;;5009663;28;20332;-70
2023/09/07 02:45:34;;;;;;;;;;;16.90;99.90;;;;;;4996981;28;19967;-70
2023/09/07 02:47:59;;;;;;;;;;;16.90;99.90;;;;;;5010037;28;20812;-70
2023/09/07 02:50:25;;;;;;;;;;;16.90;99.90;;;;;;4989249;28;20314;-70
2023/09/07 02:52:51;;;;;;;;;;;16.90;99.90;;;;;;5008109;28;19996;-70
2023/09/07 02:55:16;;;;;;;;;;;16.90;99.90;;;;;;5014466;28;19920;-70
2023/09/07 02:57:42;;;;;;;;;;;16.90;99.90;;;;;;5006768;28;19948;-70
2023/09/07 03:00:09;;;;;;;;;;;16.90;99.90;;;;;;5008033;28;19932;-70
2023/09/07 03:02:38;;;;;;;;;;;16.90;99.90;;;;;;5011517;28;19900;-71
2023/09/07 03:05:03;;;;;;;;;;;16.80;99.90;;;;;;5013051;28;19909;-71
2023/09/07 03:07:33;;;;;;;;;;;16.80;99.90;;;;;;5007695;28;19951;-71
2023/09/07 03:09:59;;;;;;;;;;;16.90;99.90;;;;;;5002364;28;20249;-71
2023/09/07 03:12:25;;;;;;;;;;;16.90;99.90;;;;;;5012031;28;19906;-71
2023/09/07 03:14:50;;;;;;;;;;;16.90;99.90;;;;;;4990268;28;19913;-71
2023/09/07 03:17:20;;;;;;;;;;;16.90;99.90;;;;;;5016006;28;20016;-71
2023/09/07 03:19:49;;;;;;;;;;;16.90;99.90;;;;;;4991568;28;20388;-71
2023/09/07 03:22:15;;;;;;;;;;;16.90;99.90;;;;;;5016005;28;19914;-71
2023/09/07 03:24:40;;;;;;;;;;;16.90;99.90;;;;;;5010492;28;20334;-71
2023/09/07 03:27:06;;;;;;;;;;;16.90;99.90;;;;;;5004378;28;19913;-71
2023/09/07 03:29:33;;;;;;;;;;;16.80;99.90;;;;;;5007258;28;19948;-71
2023/09/07 03:32:02;;;;;;;;;;;16.80;99.90;;;;;;5002872;28;19936;-71
2023/09/07 03:34:27;;;;;;;;;;;16.70;99.90;;;;;;5007734;28;19913;-71
2023/09/07 03:36:53;;;;;;;;;;;16.70;99.90;;;;;;5009387;28;20287;-71
2023/09/07 03:39:21;;;;;;;;;;;16.70;99.90;;;;;;5011836;28;21310;-71
2023/09/07 03:41:46;;;;;;;;;;;16.70;99.90;;;;;;5006526;28;19913;-71
2023/09/07 03:44:12;;;;;;;;;;;16.70;99.90;;;;;;5004338;28;20414;-71
2023/09/07 03:46:37;;;;;;;;;;;16.70;99.90;;;;;;4988093;28;19909;-71
2023/09/07 03:49:03;;;;;;;;;;;16.70;99.90;;;;;;5006956;28;20444;-71
2023/09/07 03:51:29;;;;;;;;;;;16.70;99.90;;;;;;5006517;28;20288;-72
2023/09/07 03:53:54;;;;;;;;;;;16.70;99.90;;;;;;4994401;28;19932;-71
2023/09/07 03:56:20;;;;;;;;;;;16.70;99.90;;;;;;4997382;28;19921;-71
2023/09/07 03:58:47;;;;;;;;;;;16.60;99.90;;;;;;5000648;28;19917;-71
2023/09/07 04:01:13;;;;;;;;;;;16.60;99.90;;;;;;4991985;28;19917;-71
2023/09/07 04:03:40;;;;;;;;;;;16.60;99.90;;;;;;4993242;28;20342;-71
2023/09/07 04:06:05;;;;;;;;;;;16.60;99.90;;;;;;4990999;28;20306;-71
2023/09/07 04:08:31;;;;;;;;;;;16.50;99.90;;;;;;5011876;28;19915;-70
2023/09/07 04:10:57;;;;;;;;;;;16.50;99.90;;;;;;5002968;28;20490;-71
2023/09/07 04:13:22;;;;;;;;;;;16.50;99.90;;;;;;5006477;28;20302;-71
2023/09/07 04:15:48;;;;;;;;;;;16.50;99.90;;;;;;5004848;28;19914;-71
2023/09/07 04:18:17;;;;;;;;;;;16.50;99.90;;;;;;4991775;28;19952;-71
2023/09/07 04:20:43;;;;;;;;;;;16.50;99.90;;;;;;5007828;28;19909;-71
2023/09/07 04:23:08;;;;;;;;;;;16.50;99.90;;;;;;5010114;28;19962;-71
2023/09/07 04:25:34;;;;;;;;;;;16.50;99.90;;;;;;5009491;28;19916;-71
2023/09/07 04:28:00;;;;;;;;;;;16.50;99.90;;;;;;4987253;28;19948;-70
2023/09/07 04:30:25;;;;;;;;;;;16.50;99.90;;;;;;4986516;28;19908;-65
2023/09/07 04:32:51;;;;;;;;;;;16.50;99.90;;;;;;4994259;28;20551;-72
2023/09/07 04:35:16;;;;;;;;;;;16.60;99.90;;;;;;4995220;28;19913;-71
2023/09/07 04:37:43;;;;;;;;;;;16.60;99.90;;;;;;5001344;28;19909;-71
2023/09/07 04:40:09;;;;;;;;;;;16.60;99.90;;;;;;5003897;28;20277;-70
2023/09/07 04:42:38;;;;;;;;;;;16.70;99.90;;;;;;5007000;28;19909;-71
2023/09/07 04:45:04;;;;;;;;;;;16.70;99.90;;;;;;4982955;28;19925;-72
2023/09/07 04:47:30;;;;;;;;;;;16.80;99.90;;;;;;5012913;28;19916;-72
2023/09/07 04:49:57;;;;;;;;;;;16.90;99.90;;;;;;5001099;28;20132;-72
2023/09/07 04:52:23;;;;;;;;;;;16.90;99.90;;;;;;5009728;28;19905;-72
2023/09/07 04:54:49;;;;;;;;;;;17.00;99.90;;;;;;5009001;28;20048;-72
2023/09/07 04:57:18;;;;;;;;;;;17.10;99.90;;;;;;5005471;28;19924;-72
2023/09/07 04:59:44;;;;;;;;;;;17.30;99.90;;;;;;5007337;28;19909;-71
2023/09/07 05:02:09;;;;;;;;;;;17.50;99.90;;;;;;5004928;28;19906;-69
2023/09/07 05:04:35;;;;;;;;;;;17.90;99.90;;;;;;5009855;28;19924;-69
2023/09/07 05:07:00;;;;;;;;;;;18.20;99.90;;;;;;5004158;28;20625;-69
2023/09/07 05:09:29;;;;;;;;;;;18.70;99.90;;;;;;5006682;28;19905;-68
2023/09/07 05:11:54;;;;;;;;;;;19.30;99.90;;;;;;5001811;28;19999;-70
2023/09/07 05:14:20;;;;;;;;;;;19.80;99.90;;;;;;5009256;28;20348;-72
2023/09/07 05:16:45;;;;;;;;;;;20.10;99.90;;;;;;5006675;28;19913;-73
2023/09/07 05:19:11;;;;;;;;;;;20.50;99.90;;;;;;5004111;28;19936;-74
2023/09/07 05:21:36;;;;;;;;;;;20.60;99.90;;;;;;4990703;28;20303;-74
2023/09/07 05:24:02;;;;;;;;;;;21.00;99.90;;;;;;5008677;28;19909;-73
2023/09/07 05:26:28;;;;;;;;;;;21.00;99.90;;;;;;5004848;28;20043;-72
2023/09/07 05:28:53;;;;;;;;;;;21.00;99.90;;;;;;4987044;28;20323;-72
2023/09/07 05:31:19;;;;;;;;;;;21.00;99.90;;;;;;5007035;28;19913;-70
2023/09/07 05:33:44;;;;;;;;;;;21.10;99.90;;;;;;5007928;28;20396;-70
2023/09/07 05:36:10;;;;;;;;;;;21.20;99.90;;;;;;4999279;28;19996;-69
2023/09/07 05:38:36;;;;;;;;;;;21.30;99.90;;;;;;5007366;28;19920;-68
2023/09/07 05:41:01;;;;;;;;;;;21.50;99.90;;;;;;5005227;28;19912;-67
2023/09/07 05:43:27;;;;;;;;;;;21.80;99.90;;;;;;5001541;28;19908;-68
2023/09/07 05:45:52;;;;;;;;;;;21.90;99.90;;;;;;4990108;28;19916;-71
2023/09/07 05:48:18;;;;;;;;;;;22.10;99.90;;;;;;5007126;28;19936;-71
2023/09/07 05:50:44;;;;;;;;;;;22.40;99.90;;;;;;5004943;28;20521;-71
2023/09/07 05:53:10;;;;;;;;;;;22.50;99.90;;;;;;5003439;28;19925;-71
2023/09/07 05:55:36;;;;;;;;;;;22.90;99.90;;;;;;5009982;28;19909;-71
2023/09/07 05:58:06;;;;;;;;;;;22.50;99.90;;;;;;5000496;28;19936;-71
2023/09/07 06:00:32;;;;;;;;;;;22.90;99.90;;;;;;5007178;28;20446;-71
2023/09/07 06:02:57;;;;;;;;;;;23.40;99.90;;;;;;5011096;28;19905;-71
2023/09/07 06:05:23;;;;;;;;;;;23.80;99.90;;;;;;5007002;28;20382;-71
2023/09/07 06:07:49;;;;;;;;;;;24.00;99.50;;;;;;5005958;28;19957;-71
2023/09/07 06:10:14;;;;;;;;;;;23.60;99.60;;;;;;5006834;28;20907;-70
2023/09/07 06:12:40;;;;;;;;;;;24.20;98.90;;;;;;5006028;28;19936;-71
2023/09/07 06:15:06;;;;;;;;;;;24.40;98.50;;;;;;5005368;28;19959;-71
2023/09/07 06:17:33;;;;;;;;;;;23.80;98.60;;;;;;5007469;28;19909;-71
2023/09/07 06:19:58;;;;;;;;;;;24.30;99.10;;;;;;5003518;28;20287;-71
2023/09/07 06:22:25;;;;;;;;;;;24.70;98.10;;;;;;5006451;28;19909;-71
2023/09/07 06:24:50;;;;;;;;;;;24.70;97.80;;;;;;5012648;28;19913;-70
2023/09/07 06:27:16;;;;;;;;;;;25.30;97.50;;;;;;5007187;28;20004;-71
2023/09/07 06:29:42;;;;;;;;;;;25.60;96.80;;;;;;4986630;28;20015;-72
2023/09/07 06:32:07;;;;;;;;;;;26.50;96.00;;;;;;4988474;28;20261;-71
2023/09/07 06:34:33;;;;;;;;;;;27.70;94.80;;;;;;5007687;28;20007;-71
2023/09/07 06:36:58;;;;;;;;;;;26.80;93.80;;;;;;4989727;28;20002;-72
2023/09/07 06:39:24;;;;;;;;;;;26.30;93.90;;;;;;5003422;28;20360;-71
2023/09/07 06:41:50;;;;;;;;;;;26.60;94.10;;;;;;5007441;28;20229;-72
2023/09/07 06:44:16;;;;;;;;;;;27.50;93.00;;;;;;5007911;28;19949;-73
2023/09/07 06:46:42;;;;;;;;;;;27.70;91.50;;;;;;5001131;28;20362;-72
2023/09/07 06:49:08;;;;;;;;;;;28.20;91.40;;;;;;5005009;28;19910;-73
2023/09/07 06:51:34;;;;;;;;;;;29.40;90.00;;;;;;4985790;28;20421;-72
2023/09/07 06:54:00;;;;;;;;;;;29.70;86.80;;;;;;5007587;28;19947;-73
2023/09/07 06:56:26;;;;;;;;;;;30.70;83.30;;;;;;5008604;28;19909;-72
2023/09/07 06:58:52;;;;;;;;;;;31.00;80.60;;;;;;5003060;28;19924;-71
2023/09/07 07:01:18;;;;;;;;;;;31.30;80.30;;;;;;5009824;28;20405;-75
2023/09/07 07:03:43;;;;;;;;;;;32.50;75.40;;;;;;5013925;28;19986;-75
2023/09/07 07:06:09;;;;;;;;;;;32.60;74.70;;;;;;5003806;28;20500;-72
2023/09/07 07:08:35;;;;;;;;;;;33.20;71.90;;;;;;5007034;28;19999;-71
2023/09/07 07:11:00;;;;;;;;;;;31.60;72.50;;;;;;4983060;28;20360;-72
2023/09/07 07:13:26;;;;;;;;;;;32.70;72.40;;;;;;4985808;28;19935;-73
2023/09/07 07:15:51;;;;;;;;;;;33.90;70.00;;;;;;4990152;28;19916;-69
2023/09/07 07:18:17;;;;;;;;;;;34.10;68.70;;;;;;4999930;28;19928;-69
2023/09/07 07:20:43;;;;;;;;;;;34.10;67.10;;;;;;5007645;28;19916;-70
2023/09/07 07:23:09;;;;;;;;;;;34.00;68.60;;;;;;5003199;28;19909;-74
2023/09/07 07:25:35;;;;;;;;;;;35.50;65.80;;;;;;5013099;28;19913;-76
2023/09/07 07:28:03;;;;;;;;;;;36.30;63.60;;;;;;5000796;28;19905;-74
2023/09/07 07:30:31;;;;;;;;;;;36.80;63.20;;;;;;5009088;28;19905;-73
2023/09/07 07:32:57;;;;;;;;;;;38.10;61.00;;;;;;5006512;28;20238;-75
2023/09/07 07:35:22;;;;;;;;;;;38.70;59.30;;;;;;5008640;28;19920;-73
2023/09/07 07:37:49;;;;;;;;;;;39.40;58.30;;;;;;5007175;28;20701;-76
2023/09/07 07:40:15;;;;;;;;;;;38.10;58.20;;;;;;5003680;28;19909;-72
2023/09/07 07:42:40;;;;;;;;;;;36.00;59.50;;;;;;5003940;28;20529;-71
2023/09/07 07:45:07;;;;;;;;;;;34.90;62.00;;;;;;5003867;28;19917;-71
2023/09/07 07:47:33;;;;;;;;;;;36.00;60.20;;;;;;5009040;28;20452;-74
2023/09/07 07:49:59;;;;;;;;;;;35.40;60.20;;;;;;4999221;28;19996;-71
2023/09/07 07:52:30;;;;;;;;;;;33.70;60.80;;;;;;5009059;28;20280;-70
2023/09/07 07:54:56;;;;;;;;;;;34.30;61.80;;;;;;5004752;28;19909;-71
2023/09/07 07:57:21;;;;;;;;;;;34.80;60.90;;;;;;5009739;28;19984;-74
2023/09/07 07:59:47;;;;;;;;;;;33.10;61.40;;;;;;5002867;28;19949;-73
2023/09/07 08:02:12;;;;;;;;;;;32.20;64.60;;;;;;5006676;28;20269;-73
2023/09/07 08:04:38;;;;;;;;;;;34.10;63.40;;;;;;5009550;28;19912;-73
2023/09/07 08:07:04;;;;;;;;;;;35.50;61.70;;;;;;4983152;28;19909;-72
2023/09/07 08:09:30;;;;;;;;;;;36.70;59.30;;;;;;5005192;28;19972;-70
2023/09/07 08:11:57;;;;;;;;;;;37.50;58.80;;;;;;5005799;28;19905;-70
2023/09/07 08:14:23;;;;;;;;;;;36.00;58.70;;;;;;4992710;28;19909;-71
2023/09/07 08:16:49;;;;;;;;;;;36.80;59.20;;;;;;5007100;28;20494;-70
2023/09/07 08:19:15;;;;;;;;;;;37.30;58.60;;;;;;4999440;28;19971;-71
2023/09/07 08:21:42;;;;;;;;;;;37.90;57.90;;;;;;5008666;28;20284;-71
2023/09/07 08:24:08;;;;;;;;;;;37.10;57.80;;;;;;5006245;28;19916;-70
2023/09/07 08:26:33;;;;;;;;;;;38.30;57.40;;;;;;5007671;28;19932;-70
2023/09/07 08:28:59;;;;;;;;;;;38.90;57.30;;;;;;5000121;28;20303;-71
2023/09/07 08:31:24;;;;;;;;;;;39.70;56.60;;;;;;4992220;28;19905;-73
2023/09/07 08:33:54;;;;;;;;;;;39.30;55.60;;;;;;5014664;28;20006;-73
2023/09/07 08:36:22;;;;;;;;;;;38.30;55.90;;;;;;5007260;28;19913;-71
2023/09/07 08:38:48;;;;;;;;;;;37.80;56.40;;;;;;4987133;28;19913;-70
2023/09/07 08:41:14;;;;;;;;;;;36.20;57.00;;;;;;5004238;28;19916;-72
2023/09/07 08:43:45;;;;;;;;;;;36.70;57.70;;;;;;5002602;28;19915;-72
2023/09/07 08:46:15;;;;;;;;;;;36.70;57.10;;;;;;5005989;28;19932;-75
2023/09/07 08:48:42;;;;;;;;;;;35.60;57.90;;;;;;5002330;28;19909;-73
2023/09/07 08:51:08;;;;;;;;;;;35.30;58.10;;;;;;5009357;28;20320;-73
2023/09/07 08:53:34;;;;;;;;;;;35.10;58.30;;;;;;5006163;28;20364;-73
2023/09/07 08:56:01;;;;;;;;;;;35.40;58.10;;;;;;5004800;28;20414;-72
2023/09/07 08:58:26;;;;;;;;;;;35.90;58.00;;;;;;4998872;28;19936;-72
2023/09/07 09:00:53;;;;;;;;;;;35.00;57.60;;;;;;5006545;28;19905;-75
2023/09/07 09:03:18;;;;;;;;;;;34.20;59.40;;;;;;5008943;28;19913;-75
2023/09/07 09:05:44;;;;;;;;;;;34.40;58.40;;;;;;5003152;28;19917;-73
2023/09/07 09:08:09;;;;;;;;;;;35.00;58.60;;;;;;5005083;28;19909;-74
2023/09/07 09:10:37;;;;;;;;;;;34.60;58.90;;;;;;4986221;28;19955;-73
2023/09/07 09:13:04;;;;;;;;;;;33.60;60.10;;;;;;5007526;28;19909;-74
2023/09/07 09:15:29;;;;;;;;;;;34.20;58.40;;;;;;5001390;28;19988;-72
2023/09/07 09:17:55;;;;;;;;;;;34.00;60.00;;;;;;5007725;28;20000;-75
2023/09/07 09:20:24;;;;;;;;;;;34.00;59.80;;;;;;5004789;28;19913;-74
2023/09/07 09:22:53;;;;;;;;;;;34.90;58.50;;;;;;5006668;28;20128;-78
2023/09/07 09:25:19;;;;;;;;;;;36.00;57.40;;;;;;5008933;28;20339;-77
2023/09/07 09:27:45;;;;;;;;;;;36.60;56.30;;;;;;4998091;28;19906;-67
2023/09/07 09:30:12;;;;;;;;;;;36.80;57.10;;;;;;5004261;28;19906;-66
2023/09/07 09:32:38;;;;;;;;;;;36.40;57.90;;;;;;4983112;28;19913;-66
2023/09/07 09:35:05;;;;;;;;;;;35.40;58.10;;;;;;5006392;28;19909;-66
2023/09/07 09:37:31;;;;;;;;;;;36.10;58.70;;;;;;5007190;28;20007;-64
2023/09/07 09:39:59;;;;;;;;;;;36.50;58.30;;;;;;5005098;28;20075;-65
2023/09/07 09:42:25;;;;;;;;;;;37.00;58.10;;;;;;5011220;28;20516;-65
2023/09/07 09:44:51;;;;;;;;;;;34.30;59.50;;;;;;5005595;28;20035;-65
2023/09/07 09:47:17;;;;;;;;;;;33.90;60.90;;;;;;4985585;28;19924;-65
2023/09/07 09:49:43;;;;;;;;;;;35.30;60.90;;;;;;4986429;28;20834;-61
2023/09/07 09:52:08;;;;;;;;;;;36.60;59.30;;;;;;5012317;28;20344;-64
2023/09/07 09:54:35;;;;;;;;;;;35.60;59.10;;;;;;4988498;28;19916;-64
2023/09/07 09:57:00;;;;;;;;;;;36.10;58.90;;;;;;5009968;28;20004;-62
2023/09/07 09:59:26;;;;;;;;;;;36.80;55.80;;;;;;5007852;28;20051;-64
2023/09/07 10:01:52;;;;;;;;;;;37.20;55.20;;;;;;5006377;28;20005;-63
2023/09/07 10:04:25;;;;;;;;;;;38.10;56.30;;;;;;4990295;28;19909;-64
2023/09/07 10:06:55;;;;;;;;;;;37.80;54.90;;;;;;5005271;28;20207;-63
2023/09/07 10:09:20;;;;;;;;;;;37.10;55.20;;;;;;5010426;28;20016;-64
2023/09/07 10:11:51;;;;;;;;;;;36.50;54.70;;;;;;5008850;28;20059;-63
2023/09/07 10:14:16;;;;;;;;;;;35.70;55.10;;;;;;5006132;28;19976;-63
2023/09/07 10:16:49;;;;;;;;;;;35.80;55.80;;;;;;5004080;28;20344;-63
2023/09/07 10:19:19;;;;;;;;;;;35.50;55.40;;;;;;5003456;28;19917;-65
2023/09/07 10:21:44;;;;;;;;;;;35.30;55.90;;;;;;5008762;28;19913;-64
2023/09/07 10:24:10;;;;;;;;;;;36.60;55.10;;;;;;5004941;28;19962;-64
2023/09/07 10:26:37;;;;;;;;;;;38.20;54.10;;;;;;5010430;28;20487;-64
2023/09/07 10:29:05;;;;;;;;;;;37.40;53.30;;;;;;5007467;28;19935;-64
2023/09/07 10:31:31;;;;;;;;;;;36.80;53.50;;;;;;5005274;28;19953;-63
2023/09/07 10:34:07;;;;;;;;;;;36.40;53.90;;;;;;5012275;28;19959;-64
2023/09/07 10:36:34;;;;;;;;;;;37.20;54.00;;;;;;5001432;28;19956;-64
2023/09/07 10:38:59;;;;;;;;;;;38.60;53.20;;;;;;5007857;28;19913;-65
2023/09/07 10:41:25;;;;;;;;;;;39.50;51.50;;;;;;5003188;28;19938;-66
2023/09/07 10:43:51;;;;;;;;;;;39.50;51.40;;;;;;5003969;28;19913;-64
2023/09/07 10:46:21;;;;;;;;;;;38.80;50.80;;;;;;5006564;28;19960;-63
2023/09/07 10:48:50;;;;;;;;;;;37.50;52.50;;;;;;4997984;28;19913;-64
2023/09/07 10:51:16;;;;;;;;;;;38.10;51.00;;;;;;5005695;28;19919;-64
2023/09/07 10:53:42;;;;;;;;;;;37.20;51.70;;;;;;4992041;28;19909;-65
2023/09/07 10:56:07;;;;;;;;;;;36.70;51.10;;;;;;5009211;28;20339;-64
2023/09/07 10:58:34;;;;;;;;;;;36.40;52.20;;;;;;4980716;28;19913;-64
2023/09/07 11:01:00;;;;;;;;;;;34.20;53.20;;;;;;4991379;28;19995;-64
2023/09/07 11:03:27;;;;;;;;;;;32.60;55.10;;;;;;4984011;28;19905;-66
2023/09/07 11:05:58;;;;;;;;;;;31.60;55.70;;;;;;5007331;28;19944;-63
2023/09/07 11:08:24;;;;;;;;;;;30.80;57.10;;;;;;5005980;28;19916;-65
2023/09/07 11:10:50;;;;;;;;;;;30.70;58.10;;;;;;5002888;28;20537;-63
2023/09/07 11:13:15;;;;;;;;;;;30.50;56.90;;;;;;5004504;28;19909;-63
2023/09/07 11:15:42;;;;;;;;;;;30.00;58.10;;;;;;4998722;28;19955;-64
2023/09/07 11:18:08;;;;;;;;;;;29.50;58.10;;;;;;5004246;28;19917;-64
2023/09/07 11:20:35;;;;;;;;;;;29.40;58.70;;;;;;4998590;28;19913;-66
2023/09/07 11:23:02;;;;;;;;;;;29.40;58.40;;;;;;5006217;28;20376;-63
2023/09/07 11:25:33;;;;;;;;;;;29.20;58.50;;;;;;4988953;28;19909;-64
2023/09/07 11:27:59;;;;;;;;;;;28.90;58.70;;;;;;4987082;28;19909;-65
2023/09/07 11:30:24;;;;;;;;;;;28.90;59.20;;;;;;5007271;28;19913;-66
2023/09/07 11:32:50;;;;;;;;;;;29.20;58.60;;;;;;5008322;28;20010;-64
2023/09/07 11:35:17;;;;;;;;;;;29.40;58.90;;;;;;5005300;28;20283;-63
2023/09/07 11:37:52;;;;;;;;;;;29.10;58.40;;;;;;5002402;28;20414;-64
2023/09/07 11:40:18;;;;;;;;;;;28.90;59.00;;;;;;5002060;28;20037;-63
2023/09/07 11:42:43;;;;;;;;;;;28.80;59.40;;;;;;5004788;28;20028;-63
2023/09/07 11:45:09;;;;;;;;;;;29.10;59.40;;;;;;5004537;28;19905;-64
2023/09/07 11:47:35;;;;;;;;;;;29.20;60.00;;;;;;4987383;28;19909;-64
2023/09/07 11:50:01;;;;;;;;;;;29.40;59.10;;;;;;4982456;28;19912;-65
2023/09/07 11:52:26;;;;;;;;;;;29.10;58.70;;;;;;4989499;28;19956;-65
2023/09/07 11:54:52;;;;;;;;;;;28.70;59.90;;;;;;4992387;28;20012;-65
2023/09/07 11:57:18;;;;;;;;;;;28.30;60.00;;;;;;5004975;28;20328;-63
2023/09/07 11:59:43;;;;;;;;;;;28.30;60.60;;;;;;5002456;28;20528;-64
2023/09/07 12:02:12;;;;;;;;;;;28.40;60.60;;;;;;4987691;28;19908;-64
2023/09/07 12:04:38;;;;;;;;;;;28.60;59.70;;;;;;4989116;28;19913;-63
2023/09/07 12:07:04;;;;;;;;;;;28.70;59.60;;;;;;5001774;28;20467;-63
2023/09/07 12:09:29;;;;;;;;;;;28.40;60.80;;;;;;5004707;28;19909;-65
2023/09/07 12:11:55;;;;;;;;;;;28.20;61.60;;;;;;5003835;28;20355;-65
2023/09/07 12:14:22;;;;;;;;;;;28.30;61.30;;;;;;5002704;28;19912;-63
2023/09/07 12:16:48;;;;;;;;;;;28.30;62.10;;;;;;5005417;28;19910;-63
2023/09/07 12:19:13;;;;;;;;;;;28.50;61.60;;;;;;5000135;28;20398;-63
2023/09/07 12:21:39;;;;;;;;;;;28.50;61.10;;;;;;5006016;28;19913;-64
2023/09/07 12:24:05;;;;;;;;;;;28.40;62.00;;;;;;5004304;28;20410;-63
2023/09/07 12:26:31;;;;;;;;;;;28.30;62.10;;;;;;5008513;28;19928;-63
2023/09/07 12:28:56;;;;;;;;;;;28.40;62.10;;;;;;4999390;28;19909;-66
2023/09/07 12:31:22;;;;;;;;;;;28.40;62.40;;;;;;4988923;28;19995;-65
2023/09/07 12:33:47;;;;;;;;;;;28.40;62.70;;;;;;4991905;28;19963;-64
2023/09/07 12:36:13;;;;;;;;;;;28.30;62.50;;;;;;4998776;28;19940;-63
2023/09/07 12:38:39;;;;;;;;;;;28.20;62.80;;;;;;5004373;28;19941;-63
2023/09/07 12:41:04;;;;;;;;;;;28.20;63.30;;;;;;5005463;28;19916;-64
2023/09/07 12:43:30;;;;;;;;;;;28.20;63.40;;;;;;5002227;28;19943;-63
2023/09/07 12:45:55;;;;;;;;;;;28.40;63.10;;;;;;4984895;28;19905;-65
2023/09/07 12:48:22;;;;;;;;;;;28.50;62.60;;;;;;4984965;28;19905;-63
2023/09/07 12:50:47;;;;;;;;;;;28.30;62.80;;;;;;4985932;28;19914;-64
2023/09/07 12:53:13;;;;;;;;;;;28.00;63.10;;;;;;5001644;28;20182;-64
2023/09/07 12:55:38;;;;;;;;;;;27.90;63.40;;;;;;4979613;28;19998;-64
2023/09/07 12:58:04;;;;;;;;;;;28.00;63.50;;;;;;4998559;28;19917;-64
2023/09/07 13:00:30;;;;;;;;;;;28.00;64.20;;;;;;4982935;28;19909;-65
2023/09/07 13:02:56;;;;;;;;;;;28.00;64.00;;;;;;5002796;28;20403;-65
2023/09/07 13:05:21;;;;;;;;;;;28.10;64.10;;;;;;4990526;28;20431;-64
2023/09/07 13:07:47;;;;;;;;;;;28.10;63.60;;;;;;4997618;28;19916;-63
2023/09/07 13:10:13;;;;;;;;;;;28.10;63.60;;;;;;5004982;28;19913;-63
2023/09/07 13:12:39;;;;;;;;;;;28.10;63.80;;;;;;5010054;28;19908;-63
2023/09/07 13:15:05;;;;;;;;;;;28.00;64.10;;;;;;4988537;28;19925;-63
2023/09/07 13:17:30;;;;;;;;;;;28.00;63.90;;;;;;5005526;28;19935;-63
2023/09/07 13:19:56;;;;;;;;;;;27.90;64.50;;;;;;5004036;28;20462;-65
2023/09/07 13:22:21;;;;;;;;;;;27.80;64.80;;;;;;5008714;28;19928;-63
2023/09/07 13:24:47;;;;;;;;;;;27.90;64.70;;;;;;5008837;28;20368;-63
2023/09/07 13:27:12;;;;;;;;;;;27.90;64.80;;;;;;5011696;28;19905;-63
2023/09/07 13:29:38;;;;;;;;;;;27.90;64.10;;;;;;5005385;28;19909;-64
2023/09/07 13:32:04;;;;;;;;;;;28.00;64.10;;;;;;5008785;28;19913;-65
2023/09/07 13:34:29;;;;;;;;;;;27.90;64.60;;;;;;5009056;28;19914;-64
2023/09/07 13:36:55;;;;;;;;;;;27.80;64.70;;;;;;5006100;28;20499;-64
2023/09/07 13:39:21;;;;;;;;;;;27.70;64.40;;;;;;5007078;28;19913;-63
2023/09/07 13:41:47;;;;;;;;;;;27.80;65.00;;;;;;5000016;28;19937;-64
2023/09/07 13:44:16;;;;;;;;;;;27.80;65.30;;;;;;5005170;28;19960;-63
2023/09/07 13:46:43;;;;;;;;;;;27.80;65.40;;;;;;5004444;28;20512;-64
2023/09/07 13:49:09;;;;;;;;;;;27.70;65.10;;;;;;4985395;28;19910;-64
2023/09/07 13:51:38;;;;;;;;;;;27.60;66.00;;;;;;5010680;28;19963;-64
2023/09/07 13:54:07;;;;;;;;;;;27.50;65.80;;;;;;4994708;28;20287;-72
2023/09/07 13:56:33;;;;;;;;;;;27.30;66.40;;;;;;5008204;28;19927;-73
2023/09/07 13:58:58;;;;;;;;;;;27.40;66.70;;;;;;5008004;28;19908;-72
2023/09/07 14:01:24;;;;;;;;;;;27.60;66.80;;;;;;5012843;28;19905;-72
2023/09/07 14:03:50;;;;;;;;;;;27.70;66.50;;;;;;5017126;28;19919;-73
2023/09/07 14:06:17;;;;;;;;;;;27.60;66.60;;;;;;5004267;28;20371;-73
2023/09/07 14:08:43;;;;;;;;;;;27.60;66.70;;;;;;4985012;28;19916;-73
2023/09/07 14:11:09;;;;;;;;;;;27.50;66.70;;;;;;5007524;28;19909;-73